Time;durP1;ratioP1;P1;durP2;ratioP2;P2;SDS_P1;SDS_P2;PMS_P1;PMS_P2;Temp;Humidity;BMP_temperature;BMP_pressure;BME280_temperature;BME280_humidity;BME280_pressure;Samples;Min_cycle;Max_cycle;Signal;HPM_P1;HPM_P2
2022/11/18 00:01:23;;;;;;;6.70;3.33;;;;;;;5.41;100.00;99518.41;4990948;28;20439;-84
2022/11/18 00:03:49;;;;;;;6.68;3.40;;;;;;;5.37;100.00;99527.94;5006403;28;20129;-85
2022/11/18 00:06:21;;;;;;;8.73;3.08;;;;;;;5.34;100.00;99527.13;5007587;28;20519;-85
2022/11/18 00:08:47;;;;;;;9.38;3.65;;;;;;;5.35;100.00;99518.56;4991297;28;20053;-85
2022/11/18 00:16:44;;;;;;;5.38;3.25;;;;;;;5.23;100.00;99529.13;5007670;28;20452;-85
2022/11/18 00:19:09;;;;;;;5.45;3.13;;;;;;;5.22;100.00;99533.41;5007880;28;20076;-85
2022/11/18 00:21:34;;;;;;;5.55;2.85;;;;;;;5.21;100.00;99536.88;5008637;28;20116;-85
2022/11/18 00:23:59;;;;;;;5.63;3.10;;;;;;;5.19;100.00;99537.78;5007452;28;20488;-85
2022/11/18 00:26:25;;;;;;;6.75;3.03;;;;;;;5.16;100.00;99541.28;5007173;28;20180;-85
2022/11/18 00:28:50;;;;;;;11.40;3.65;;;;;;;5.14;100.00;99540.44;5009552;28;20105;-85
2022/11/18 00:31:15;;;;;;;8.10;3.63;;;;;;;5.10;100.00;99544.81;5006546;28;20164;-85
2022/11/18 00:33:41;;;;;;;6.15;3.22;;;;;;;5.07;100.00;99549.16;4991010;28;20018;-85
2022/11/18 00:36:11;;;;;;;9.80;3.60;;;;;;;5.08;100.00;99549.13;5008634;28;20026;-84
2022/11/18 00:38:37;;;;;;;8.52;3.40;;;;;;;5.05;100.00;99548.38;5007823;28;20026;-85
2022/11/18 00:41:05;;;;;;;9.13;3.28;;;;;;;5.03;100.00;99560.41;5006850;28;20059;-85
2022/11/18 00:43:31;;;;;;;7.78;3.17;;;;;;;4.99;100.00;99559.59;5005187;28;20112;-85
2022/11/18 00:45:56;;;;;;;5.57;3.10;;;;;;;4.95;100.00;99565.69;5009920;28;20211;-85
2022/11/18 00:48:22;;;;;;;6.30;3.17;;;;;;;4.94;100.00;99563.16;5012992;28;20559;-85
2022/11/18 00:50:51;;;;;;;8.40;3.38;;;;;;;4.96;100.00;99564.81;5011170;28;20034;-85
2022/11/18 00:53:17;;;;;;;7.13;3.55;;;;;;;4.98;100.00;99575.06;5009301;28;20091;-85
2022/11/18 00:55:43;;;;;;;7.80;3.70;;;;;;;5.04;100.00;99572.38;4993515;28;20026;-85
2022/11/18 00:58:13;;;;;;;11.35;3.53;;;;;;;5.11;100.00;99579.91;5012429;28;20033;-85
2022/11/18 01:00:50;;;;;;;9.05;3.83;;;;;;;5.17;100.00;99573.78;5011158;28;20558;-85
2022/11/18 01:03:15;;;;;;;7.75;3.53;;;;;;;5.26;100.00;99577.84;4989782;28;20046;-85
2022/11/18 01:05:41;;;;;;;10.43;3.55;;;;;;;5.32;100.00;99583.69;4990435;28;20031;-85
2022/11/18 01:08:08;;;;;;;8.38;3.92;;;;;;;5.38;100.00;99587.88;4991377;28;20061;-85
2022/11/18 01:10:35;;;;;;;8.38;3.17;;;;;;;5.45;100.00;99590.28;4988827;28;20023;-84
2022/11/18 01:13:19;;;;;;;6.85;3.88;;;;;;;5.50;100.00;99591.00;4990786;28;20080;-85
2022/11/18 01:15:50;;;;;;;6.88;3.72;;;;;;;5.60;100.00;99595.91;4992343;28;20085;-84
2022/11/18 01:18:17;;;;;;;7.22;3.25;;;;;;;5.64;100.00;99602.69;4991627;28;20065;-85
2022/11/18 01:20:44;;;;;;;5.78;3.28;;;;;;;5.72;100.00;99598.22;4992481;28;20037;-85
2022/11/18 01:23:10;;;;;;;7.53;3.90;;;;;;;5.79;100.00;99607.47;4989875;28;20517;-85
2022/11/18 01:25:37;;;;;;;10.32;3.58;;;;;;;5.83;100.00;99607.34;4992622;28;20030;-85
2022/11/18 01:28:03;;;;;;;7.38;3.50;;;;;;;5.90;100.00;99614.06;4991643;28;20034;-86
2022/11/18 01:30:32;;;;;;;7.68;3.70;;;;;;;5.96;100.00;99607.91;4991929;28;20078;-85
2022/11/18 01:32:57;;;;;;;7.40;3.67;;;;;;;5.99;100.00;99612.16;4991067;28;20501;-85
2022/11/18 01:35:22;;;;;;;8.98;3.70;;;;;;;6.05;100.00;99623.13;4989449;28;20057;-85
2022/11/18 01:37:48;;;;;;;7.28;3.45;;;;;;;6.10;100.00;99615.28;4992801;28;20030;-85
2022/11/18 01:40:13;;;;;;;9.45;3.78;;;;;;;6.13;100.00;99622.94;4991942;28;20448;-85
2022/11/18 01:42:39;;;;;;;9.68;3.53;;;;;;;6.19;100.00;99627.94;4990308;28;20508;-85
2022/11/18 01:45:32;;;;;;;8.43;3.72;;;;;;;6.24;100.00;99636.38;4991564;28;20113;-85
2022/11/18 01:48:06;;;;;;;6.15;3.50;;;;;;;6.28;100.00;99638.81;4992054;28;20277;-85
2022/11/18 01:50:35;;;;;;;9.98;3.47;;;;;;;6.35;100.00;99642.91;4990797;28;20034;-85
2022/11/18 01:53:06;;;;;;;7.00;3.30;;;;;;;6.38;100.00;99639.44;4983969;28;20035;-84
2022/11/18 01:55:36;;;;;;;10.43;3.72;;;;;;;6.41;100.00;99634.22;4983166;28;20540;-85
2022/11/18 01:58:25;;;;;;;11.45;3.70;;;;;;;6.47;100.00;99633.22;4992128;28;20080;-85
2022/11/18 02:00:50;;;;;;;9.07;3.50;;;;;;;6.49;100.00;99639.13;4991027;28;20034;-85
2022/11/18 02:03:17;;;;;;;7.63;3.22;;;;;;;6.54;100.00;99645.03;4997041;28;20056;-85
2022/11/18 02:05:45;;;;;;;7.57;3.67;;;;;;;6.58;100.00;99651.78;5008977;28;20021;-85
2022/11/18 02:08:11;;;;;;;9.95;3.20;;;;;;;6.60;100.00;99650.00;5011062;28;20025;-85
2022/11/18 02:10:37;;;;;;;8.05;3.33;;;;;;;6.64;100.00;99656.75;5011165;28;20109;-85
2022/11/18 02:13:02;;;;;;;5.82;3.05;;;;;;;6.66;100.00;99649.84;5010614;28;20109;-85
2022/11/18 02:15:48;;;;;;;7.80;3.50;;;;;;;6.69;100.00;99653.16;5003844;28;20130;-85
2022/11/18 02:18:34;;;;;;;8.05;3.17;;;;;;;6.73;100.00;99653.94;5008162;28;20034;-84
2022/11/18 02:21:16;;;;;;;9.23;3.53;;;;;;;6.75;100.00;99657.34;5010254;28;20506;-85
2022/11/18 02:23:53;;;;;;;11.00;3.40;;;;;;;6.81;100.00;99658.88;5010756;28;20072;-85
2022/11/18 02:27:06;;;;;;;6.88;3.30;;;;;;;6.84;100.00;99653.63;4991390;28;20037;-85
2022/11/18 02:29:57;;;;;;;6.80;3.13;;;;;;;6.87;100.00;99669.88;4950285;28;20494;-85
2022/11/18 02:32:32;;;;;;;8.07;3.38;;;;;;;6.89;100.00;99662.09;5004747;28;20022;-85
2022/11/18 02:35:12;;;;;;;8.20;3.33;;;;;;;6.93;100.00;99668.84;5010007;28;20076;-85
2022/11/18 02:37:53;;;;;;;5.70;3.00;;;;;;;6.96;100.00;99673.94;5010971;28;20125;-85
2022/11/18 02:40:24;;;;;;;7.28;3.30;;;;;;;6.98;100.00;99679.88;5008970;28;20025;-85
2022/11/18 02:42:57;;;;;;;8.40;3.00;;;;;;;7.00;100.00;99671.22;5009428;28;20034;-85
2022/11/18 02:45:24;;;;;;;9.32;3.42;;;;;;;7.00;100.00;99673.78;5009631;28;20058;-85
2022/11/18 02:47:51;;;;;;;6.35;3.45;;;;;;;7.02;100.00;99681.47;5009438;28;20037;-85
2022/11/18 02:50:22;;;;;;;7.25;3.30;;;;;;;7.06;100.00;99686.50;5010724;28;20495;-84
2022/11/18 02:52:53;;;;;;;7.65;3.22;;;;;;;7.07;100.00;99677.88;4994427;28;20099;-85
2022/11/18 02:55:20;;;;;;;6.00;3.03;;;;;;;7.09;100.00;99678.69;5007703;28;20041;-85
2022/11/18 02:57:47;;;;;;;5.35;2.90;;;;;;;7.13;100.00;99682.00;5008623;28;20022;-84
2022/11/18 03:00:12;;;;;;;6.78;2.92;;;;;;;7.13;100.00;99685.44;5007752;28;20026;-85
2022/11/18 03:02:47;;;;;;;7.63;3.28;;;;;;;7.16;100.00;99686.25;5004868;28;20026;-85
2022/11/18 03:05:21;;;;;;;7.80;3.50;;;;;;;7.17;100.00;99683.59;5009268;28;20060;-84
2022/11/18 03:07:50;;;;;;;;;;;;;;;7.20;100.00;99693.84;4992950;28;20041;-85
2022/11/18 03:10:18;;;;;;;7.45;2.63;;;;;;;7.19;100.00;99688.72;5007360;28;20391;-85
2022/11/18 03:13:07;;;;;;;7.35;2.95;;;;;;;7.20;100.00;99693.00;5006466;28;20420;-85
2022/11/18 03:15:54;;;;;;;8.45;3.42;;;;;;;7.20;100.00;99693.00;5001434;28;20508;-85
2022/11/18 03:18:56;;;;;;;8.15;3.05;;;;;;;7.24;100.00;99703.16;5008026;28;20117;-85
2022/11/18 03:21:38;;;;;;;8.50;3.30;;;;;;;7.24;100.00;99699.75;4977795;28;20100;-85
2022/11/18 03:24:12;;;;;;;6.63;3.05;;;;;;;7.29;100.00;99701.31;5006002;28;20051;-84
2022/11/18 03:26:42;;;;;;;8.90;3.00;;;;;;;7.29;100.00;99714.22;5007840;28;20057;-85
2022/11/18 03:29:16;;;;;;;5.20;3.00;;;;;;;7.29;100.00;99709.06;5008254;28;20061;-85
2022/11/18 03:31:46;;;;;;;6.78;3.13;;;;;;;7.31;100.00;99720.13;5008553;28;20296;-85
2022/11/18 03:34:20;;;;;;;10.90;3.30;;;;;;;7.34;100.00;99721.78;5008489;28;20034;-85
2022/11/18 03:36:49;;;;;;;5.40;2.97;;;;;;;7.37;100.00;99727.69;4999500;28;20546;-86
2022/11/18 03:39:18;;;;;;;8.27;3.17;;;;;;;7.37;100.00;99732.03;5007467;28;20049;-85
2022/11/18 03:41:50;;;;;;;6.05;2.95;;;;;;;7.39;100.00;99725.09;5007050;28;20037;-85
2022/11/18 03:44:21;;;;;;;7.55;3.20;;;;;;;7.41;100.00;99728.47;5007208;28;20495;-85
2022/11/18 03:46:54;;;;;;;7.53;3.38;;;;;;;7.43;100.00;99731.84;5008550;28;20033;-86
2022/11/18 03:49:28;;;;;;;7.38;3.13;;;;;;;7.43;100.00;99737.00;5004379;28;20025;-85
2022/11/18 03:52:00;;;;;;;7.55;3.30;;;;;;;7.46;100.00;99747.22;5009120;28;20021;-86
2022/11/18 03:54:32;;;;;;;8.00;3.67;;;;;;;7.46;100.00;99749.81;5006389;28;20024;-86
2022/11/18 03:57:02;;;;;;;8.05;3.58;;;;;;;7.47;100.00;99749.75;5007157;28;20057;-85
2022/11/18 03:59:35;;;;;;;9.13;3.40;;;;;;;7.48;100.00;99753.19;5009258;28;20104;-86
2022/11/18 04:02:22;;;;;;;9.90;3.22;;;;;;;7.47;100.00;99748.91;5004576;28;20646;-86
2022/11/18 04:04:50;;;;;;;9.20;3.42;;;;;;;7.50;100.00;99764.31;5005270;28;20404;-86
2022/11/18 04:07:21;;;;;;;9.10;3.15;;;;;;;7.48;100.00;99755.78;5007655;28;20030;-86
2022/11/18 04:10:00;;;;;;;8.07;3.33;;;;;;;7.50;100.00;99764.31;5008532;28;20025;-86
2022/11/18 04:12:28;;;;;;;9.32;3.88;;;;;;;7.47;100.00;99765.22;5007449;28;20297;-87
2022/11/18 04:14:54;;;;;;;7.88;3.38;;;;;;;7.48;100.00;99766.94;5007961;28;20030;-87
2022/11/18 04:17:21;;;;;;;9.15;3.60;;;;;;;7.47;100.00;99769.53;5005400;28;20032;-86
2022/11/18 04:19:47;;;;;;;9.20;3.47;;;;;;;7.45;100.00;99776.47;5005807;28;20026;-87
2022/11/18 04:22:13;;;;;;;7.40;3.53;;;;;;;7.46;100.00;99783.31;5006369;28;20026;-87
2022/11/18 04:24:39;;;;;;;6.43;3.17;;;;;;;7.45;100.00;99779.03;4991549;28;20037;-87
2022/11/18 04:27:05;;;;;;;9.85;3.78;;;;;;;7.43;100.00;99780.84;5007135;28;20038;-87
2022/11/18 04:29:32;;;;;;;9.20;3.35;;;;;;;7.42;100.00;99785.16;5009026;28;20029;-87
2022/11/18 04:31:58;;;;;;;11.32;3.70;;;;;;;7.37;100.00;99787.00;5011917;28;20025;-87
2022/11/18 04:34:23;;;;;;;7.45;3.33;;;;;;;7.33;100.00;99794.84;5007398;28;20261;-87
2022/11/18 04:36:48;;;;;;;12.57;3.90;;;;;;;7.28;100.00;99794.16;5005109;28;20420;-87
2022/11/18 04:39:14;;;;;;;8.02;3.53;;;;;;;7.24;100.00;99790.78;5006760;28;20026;-87
2022/11/18 04:41:54;;;;;;;5.53;3.08;;;;;;;7.22;100.00;99784.84;5007373;28;20164;-86
2022/11/18 04:44:30;;;;;;;7.20;3.33;;;;;;;7.25;100.00;99795.06;5008353;28;20399;-86
2022/11/18 04:46:58;;;;;;;7.82;3.65;;;;;;;7.26;100.00;99799.34;5004518;28;20025;-87
2022/11/18 04:49:24;;;;;;;10.98;3.75;;;;;;;7.24;100.00;99797.66;5006993;28;20030;-87
2022/11/18 04:51:50;;;;;;;14.02;4.10;;;;;;;7.19;100.00;99805.53;5002682;28;20480;-87
2022/11/18 04:54:16;;;;;;;7.88;3.53;;;;;;;7.14;100.00;99818.56;5008976;28;20076;-87
2022/11/18 04:56:43;;;;;;;8.55;3.75;;;;;;;7.09;100.00;99817.00;4988136;28;20034;-87
2022/11/18 04:59:09;;;;;;;7.45;3.28;;;;;;;7.05;100.00;99821.34;4994167;28;20399;-87
2022/11/18 05:01:34;;;;;;;7.80;3.50;;;;;;;7.02;100.00;99824.03;5006109;28;20122;-87
2022/11/18 05:04:01;;;;;;;6.00;3.50;;;;;;;6.99;100.00;99821.53;5005902;28;20136;-87
2022/11/18 05:06:27;;;;;;;7.22;3.30;;;;;;;6.96;100.00;99825.91;5006343;28;20463;-87
2022/11/18 05:08:52;;;;;;;6.15;3.22;;;;;;;6.89;100.00;99827.78;5007519;28;20356;-87
2022/11/18 05:14:02;;;;;;;7.80;3.70;;;;;;;6.75;100.00;99847.91;5007307;28;20064;-87
2022/11/18 05:16:27;;;;;;;6.72;3.60;;;;;;;6.75;100.00;99841.00;5006569;28;20026;-88
2022/11/18 05:18:52;;;;;;;7.68;3.50;;;;;;;6.73;100.00;99836.78;4990642;28;20033;-87
2022/11/18 05:21:18;;;;;;;7.88;3.63;;;;;;;6.72;100.00;99850.53;5006390;28;20022;-87
2022/11/18 05:23:43;;;;;;;7.63;3.28;;;;;;;6.66;100.00;99851.53;5006895;28;20025;-86
2022/11/18 05:26:10;;;;;;;7.10;3.10;;;;;;;6.57;100.00;99850.88;5005851;28;20030;-87
2022/11/18 05:28:36;;;;;;;8.90;3.30;;;;;;;6.50;100.00;99859.63;5006571;28;20021;-87
2022/11/18 05:31:13;;;;;;;5.82;3.65;;;;;;;6.39;100.00;99854.75;5007090;28;20037;-86
2022/11/18 05:33:39;;;;;;;5.63;3.30;;;;;;;6.30;100.00;99858.38;5004719;28;20029;-87
2022/11/18 05:36:06;;;;;;;6.47;3.33;;;;;;;6.22;100.00;99860.25;5008441;28;20033;-86
2022/11/18 05:38:33;;;;;;;6.15;3.00;;;;;;;6.13;100.00;99863.03;5010456;28;20073;-78
2022/11/18 05:40:59;;;;;;;4.82;2.95;;;;;;;6.05;100.00;99869.22;4993701;28;20022;-78
2022/11/18 05:43:24;;;;;;;6.15;3.47;;;;;;;5.96;100.00;99867.69;5010770;28;20067;-79
2022/11/18 05:45:50;;;;;;;5.90;3.13;;;;;;;5.86;100.00;99867.00;5010962;28;20117;-78
2022/11/18 05:48:17;;;;;;;4.55;2.75;;;;;;;5.81;100.00;99870.53;4993914;28;20029;-77
2022/11/18 05:50:46;;;;;;;5.55;2.97;;;;;;;5.77;100.00;99881.75;5009279;28;20522;-77
2022/11/18 05:53:12;;;;;;;6.15;3.05;;;;;;;5.72;100.00;99878.44;5011922;28;20081;-78
2022/11/18 05:55:43;;;;;;;7.18;3.10;;;;;;;5.66;100.00;99878.56;5009619;28;20121;-78
2022/11/18 05:58:08;;;;;;;5.10;3.28;;;;;;;5.61;100.00;99878.63;5011561;28;20017;-78
2022/11/18 06:00:34;;;;;;;4.47;2.97;;;;;;;5.57;100.00;99882.16;5011064;28;20109;-78
2022/11/18 06:03:00;;;;;;;7.55;3.25;;;;;;;5.46;100.00;99891.75;5010949;28;20057;-78
2022/11/18 06:05:25;;;;;;;6.13;2.97;;;;;;;5.45;100.00;99885.78;5009617;28;20124;-78
2022/11/18 06:07:53;;;;;;;8.38;3.35;;;;;;;5.43;100.00;99891.81;5010375;28;20106;-78
2022/11/18 06:10:27;;;;;;;9.35;2.90;;;;;;;5.38;100.00;99893.66;5011478;28;20029;-87
2022/11/18 06:12:57;;;;;;;8.93;3.25;;;;;;;5.36;100.00;99903.94;5008837;28;20030;-88
2022/11/18 06:15:26;;;;;;;7.65;3.33;;;;;;;5.34;100.00;99908.25;5011119;28;20021;-87
2022/11/18 06:17:58;;;;;;;8.45;3.35;;;;;;;5.30;100.00;99916.91;5008106;28;20022;-87
2022/11/18 06:20:23;;;;;;;7.72;3.65;;;;;;;5.31;100.00;99922.88;5011339;28;20028;-87
2022/11/18 06:22:52;;;;;;;6.93;3.45;;;;;;;5.30;100.00;99926.31;5011665;28;20034;-88
2022/11/18 06:25:18;;;;;;;6.57;3.65;;;;;;;5.26;100.00;99929.78;5008245;28;20045;-87
2022/11/18 06:27:44;;;;;;;10.85;3.92;;;;;;;5.24;100.00;99935.00;5014339;28;20076;-87
2022/11/18 06:30:10;;;;;;;7.88;3.70;;;;;;;5.26;100.00;99928.09;5010070;28;20078;-86
2022/11/18 06:32:36;;;;;;;9.25;4.15;;;;;;;5.25;100.00;99938.41;5009818;28;20029;-87
2022/11/18 06:35:01;;;;;;;6.90;3.63;;;;;;;5.24;100.00;99929.84;5010535;28;20038;-87
2022/11/18 06:37:26;;;;;;;10.77;4.05;;;;;;;5.25;100.00;99943.53;4994009;28;20026;-87
2022/11/18 06:39:52;;;;;;;7.32;3.80;;;;;;;5.21;100.00;99944.44;5008707;28;20092;-87
2022/11/18 06:45:02;;;;;;;7.53;3.60;;;;;;;5.23;100.00;99946.13;5008149;28;20037;-87
2022/11/18 06:47:28;;;;;;;11.18;4.07;;;;;;;5.18;100.00;99955.66;4990252;28;20029;-87
2022/11/18 06:49:53;;;;;;;9.18;3.97;;;;;;;5.16;100.00;99955.66;5009783;28;20404;-88
2022/11/18 06:52:19;;;;;;;10.25;4.10;;;;;;;5.17;100.00;99961.66;5007723;28;20084;-87
2022/11/18 06:54:44;;;;;;;9.63;3.97;;;;;;;5.18;100.00;99967.63;4989326;28;20496;-87
2022/11/18 06:57:09;;;;;;;6.95;3.60;;;;;;;5.16;100.00;99972.78;5009041;28;20021;-88
2022/11/18 06:59:34;;;;;;;15.63;4.10;;;;;;;5.15;100.00;99969.38;5006706;28;20336;-88
2022/11/18 07:02:00;;;;;;;8.60;3.80;;;;;;;5.11;100.00;99977.16;4988872;28;20054;-88
2022/11/18 07:04:25;;;;;;;11.35;4.07;;;;;;;5.13;100.00;99975.41;5005572;28;20045;-87
2022/11/18 07:06:50;;;;;;;11.23;4.35;;;;;;;5.11;100.00;99987.44;5003049;28;20034;-88
2022/11/18 07:09:16;;;;;;;8.15;3.70;;;;;;;5.09;100.00;99989.16;5010307;28;20504;-87
2022/11/18 07:11:41;;;;;;;11.70;4.13;;;;;;;5.07;100.00;99986.63;5009361;28;20057;-87
2022/11/18 07:14:08;;;;;;;10.65;4.47;;;;;;;5.11;100.00;99992.56;5010263;28;20276;-87
2022/11/18 07:16:35;;;;;;;9.30;4.43;;;;;;;5.12;100.00;99999.38;5009192;28;20022;-87
2022/11/18 07:19:00;;;;;;;11.52;3.97;;;;;;;5.19;100.00;100000.16;5009068;28;20038;-78
2022/11/18 07:21:28;;;;;;;9.75;4.45;;;;;;;5.24;100.00;99999.22;4991650;28;20033;-78
2022/11/18 07:23:55;;;;;;;12.48;4.47;;;;;;;5.32;100.00;100005.06;5007338;28;20030;-78
2022/11/18 07:26:21;;;;;;;10.88;4.95;;;;;;;5.35;100.00;99999.88;5010124;28;20112;-78
2022/11/18 07:28:46;;;;;;;11.32;4.18;;;;;;;5.40;100.00;100004.94;4989309;28;20128;-79
2022/11/18 07:31:18;;;;;;;15.05;5.03;;;;;;;5.39;100.00;100019.50;5011228;28;20109;-78
2022/11/18 07:33:44;;;;;;;11.90;5.43;;;;;;;5.41;100.00;100022.91;5011075;28;20021;-79
2022/11/18 07:36:19;;;;;;;12.68;5.07;;;;;;;5.45;100.00;100023.72;5010700;28;20379;-79
2022/11/18 07:38:45;;;;;;;14.60;5.43;;;;;;;5.49;100.00;100022.78;5006382;28;20036;-79
2022/11/18 07:41:13;;;;;;;10.02;4.65;;;;;;;5.53;100.00;100032.97;5006643;28;20172;-79
2022/11/18 07:43:39;;;;;;;10.77;5.55;;;;;;;5.53;100.00;100032.13;5004967;28;20030;-79
2022/11/18 07:46:18;;;;;;;12.68;5.50;;;;;;;5.58;100.00;100032.94;5006648;28;20010;-79
2022/11/18 07:48:45;;;;;;;14.45;5.20;;;;;;;5.61;100.00;100042.28;5006817;28;20041;-79
2022/11/18 07:51:12;;;;;;;10.45;5.30;;;;;;;5.65;100.00;100046.53;5009356;28;20030;-78
2022/11/18 07:53:37;;;;;;;11.48;5.18;;;;;;;5.65;100.00;100042.25;5006975;28;20148;-79
2022/11/18 07:56:03;;;;;;;13.80;5.75;;;;;;;5.71;100.00;100042.13;5014842;28;20112;-78
2022/11/18 07:58:29;;;;;;;15.52;5.47;;;;;;;5.74;100.00;100054.06;5010970;28;20033;-78
2022/11/18 08:00:54;;;;;;;16.48;5.72;;;;;;;5.76;100.00;100053.19;5006202;28;20041;-79
2022/11/18 08:03:27;;;;;;;12.75;5.78;;;;;;;5.79;100.00;100062.56;5004839;28;20064;-78
2022/11/18 08:05:58;;;;;;;12.25;5.35;;;;;;;5.83;100.00;100057.34;5005724;28;20281;-78
2022/11/18 08:08:23;;;;;;;17.77;5.65;;;;;;;5.87;100.00;100064.16;5008522;28;20036;-78
2022/11/18 08:10:48;;;;;;;14.05;5.95;;;;;;;5.89;100.00;100061.56;5008907;28;20403;-78
2022/11/18 08:13:14;;;;;;;14.02;6.03;;;;;;;5.91;100.00;100070.09;5005890;28;20029;-78
2022/11/18 08:15:41;;;;;;;15.55;6.20;;;;;;;5.97;100.00;100075.16;5007175;28;20404;-78
2022/11/18 08:18:06;;;;;;;16.63;6.30;;;;;;;6.00;100.00;100075.09;5009975;28;20057;-87
2022/11/18 08:20:33;;;;;;;12.15;5.90;;;;;;;6.05;100.00;100077.59;5006648;28;20120;-87
2022/11/18 08:22:59;;;;;;;15.20;6.63;;;;;;;6.11;100.00;100077.47;5007542;28;20030;-88
2022/11/18 08:25:24;;;;;;;18.23;6.75;;;;;;;6.14;100.00;100078.25;5007861;28;20022;-87
2022/11/18 08:27:49;;;;;;;16.60;6.20;;;;;;;6.19;100.00;100083.34;5007625;28;20025;-87
2022/11/18 08:30:16;;;;;;;15.43;6.32;;;;;;;6.20;100.00;100083.31;5005500;28;20447;-87
2022/11/18 08:32:41;;;;;;;15.32;5.95;;;;;;;6.23;100.00;100087.53;5015066;28;20105;-87
2022/11/18 08:35:07;;;;;;;13.95;6.63;;;;;;;6.27;100.00;100092.63;5019228;28;20150;-87
2022/11/18 08:37:32;;;;;;;17.55;6.15;;;;;;;6.30;100.00;100099.41;5007364;28;20030;-88
2022/11/18 08:39:58;;;;;;;16.58;6.80;;;;;;;6.31;100.00;100103.69;5011833;28;20034;-88
2022/11/18 08:42:24;;;;;;;16.15;6.55;;;;;;;6.32;100.00;100097.69;5006781;28;20033;-87
2022/11/18 08:44:50;;;;;;;16.63;6.55;;;;;;;6.34;100.00;100101.06;5002911;28;20077;-87
2022/11/18 08:47:15;;;;;;;20.50;7.28;;;;;;;6.38;100.00;100109.56;5002687;28;20053;-88
2022/11/18 08:49:40;;;;;;;14.18;6.75;;;;;;;6.41;100.00;100109.53;4986453;28;20061;-88
2022/11/18 08:52:05;;;;;;;19.33;6.90;;;;;;;6.44;100.00;100109.47;5002474;28;20014;-88
2022/11/18 08:54:31;;;;;;;17.58;6.55;;;;;;;6.47;100.00;100107.69;5006908;28;20289;-88
2022/11/18 08:56:56;;;;;;;17.23;7.10;;;;;;;6.50;100.00;100102.47;5007725;28;20141;-86
2022/11/18 08:59:22;;;;;;;15.95;6.88;;;;;;;6.53;100.00;100093.84;5007876;28;20026;-88
2022/11/18 09:01:47;;;;;;;16.75;7.05;;;;;;;6.59;100.00;100106.59;4996364;28;20504;-87
2022/11/18 09:04:12;;;;;;;13.80;6.60;;;;;;;6.63;100.00;100098.78;5006819;28;20061;-87
2022/11/18 09:06:39;;;;;;;17.23;7.40;;;;;;;6.65;100.00;100103.91;5009211;28;20033;-87
2022/11/18 09:09:04;;;;;;;15.30;7.00;;;;;;;6.68;100.00;100109.84;5012911;28;20091;-87
2022/11/18 09:11:30;;;;;;;14.48;6.57;;;;;;;6.70;100.00;100117.53;5012733;28;20029;-88
2022/11/18 09:13:58;;;;;;;16.85;6.65;;;;;;;6.72;100.00;100119.22;5009501;28;20156;-88
2022/11/18 09:16:24;;;;;;;15.55;7.22;;;;;;;6.71;100.00;100120.09;5006465;28;20029;-88
2022/11/18 09:18:50;;;;;;;18.00;7.10;;;;;;;6.74;100.00;100126.91;5013018;28;20037;-87
2022/11/18 09:21:17;;;;;;;16.75;6.68;;;;;;;6.77;100.00;100131.13;5012916;28;20399;-88
2022/11/18 09:23:42;;;;;;;14.85;6.82;;;;;;;6.81;100.00;100125.06;5012881;28;20029;-88
2022/11/18 09:26:11;;;;;;;15.98;6.75;;;;;;;6.87;100.00;100127.50;5016788;28;20018;-87
2022/11/18 09:28:36;;;;;;;19.45;6.72;;;;;;;6.90;100.00;100122.28;5012320;28;20399;-88
2022/11/18 09:31:04;;;;;;;17.60;6.90;;;;;;;7.00;100.00;100128.97;4989563;28;20464;-88
2022/11/18 09:33:29;;;;;;;16.13;6.90;;;;;;;7.09;100.00;100139.94;4990325;28;20124;-88
2022/11/18 09:35:55;;;;;;;20.10;7.55;;;;;;;7.24;100.00;100145.63;5007830;28;20440;-87
2022/11/18 09:38:20;;;;;;;19.13;7.22;;;;;;;7.40;100.00;100147.84;5018317;28;20030;-88
2022/11/18 09:40:59;;;;;;;21.17;7.45;;;;;;;7.54;100.00;100150.13;5009758;28;20022;-88
2022/11/18 09:43:38;;;;;;;21.70;7.60;;;;;;;7.67;100.00;100153.25;5013148;28;20030;-87
2022/11/18 09:46:48;;;;;;;21.23;7.50;;;;;;;7.79;100.00;100161.56;5018533;28;20030;-88
2022/11/18 09:49:27;;;;;;;20.52;7.25;;;;;;;7.85;100.00;100160.56;4989737;28;20061;-88
2022/11/18 09:51:53;;;;;;;21.23;7.45;;;;;;;7.87;100.00;100158.81;5009936;28;20049;-88
2022/11/18 09:54:22;;;;;;;14.68;6.80;;;;;;;7.89;100.00;100164.78;5013838;28;20026;-88
2022/11/18 09:56:50;;;;;;;20.00;7.50;;;;;;;7.93;100.00;100168.97;5016349;28;20025;-87
2022/11/18 09:59:18;;;;;;;16.33;7.00;;;;;;;7.91;100.00;100174.16;5015897;28;20030;-88
2022/11/18 10:01:45;;;;;;;15.63;6.82;;;;;;;7.89;100.00;100185.44;5003013;28;20037;-88
2022/11/18 10:04:16;;;;;;;18.90;7.25;;;;;;;7.85;100.00;100184.63;5006249;28;20504;-88
2022/11/18 10:06:42;;;;;;;13.38;6.55;;;;;;;7.82;100.00;100178.72;5012181;28;20113;-88
2022/11/18 10:09:31;;;;;;;18.52;7.00;;;;;;;7.80;100.00;100181.31;5011416;28;20030;-87
2022/11/18 10:12:23;;;;;;;14.65;6.30;;;;;;;7.81;100.00;100180.44;5011163;28;20072;-87
2022/11/18 10:15:19;;;;;;;18.13;6.72;;;;;;;7.82;100.00;100187.31;5011264;28;20052;-88
2022/11/18 10:18:17;;;;;;;13.77;6.45;;;;;;;7.86;100.00;100191.50;5002001;28;20037;-87
2022/11/18 10:21:05;;;;;;;13.85;6.45;;;;;;;7.89;100.00;100196.59;5009868;28;20182;-87
2022/11/18 10:23:41;;;;;;;13.20;5.88;;;;;;;7.96;100.00;100192.16;5004121;28;20052;-87
2022/11/18 10:26:06;;;;;;;16.38;6.30;;;;;;;8.07;100.00;100192.72;5007677;28;20078;-87
2022/11/18 10:28:31;;;;;;;15.77;5.97;;;;;;;8.20;100.00;100199.28;5008271;28;20121;-88
2022/11/18 10:31:06;;;;;;;13.50;5.85;;;;;;;8.28;100.00;100201.69;5005108;28;20040;-87
2022/11/18 10:33:31;;;;;;;14.52;5.85;;;;;;;8.44;100.00;100204.78;4999900;28;20108;-87
2022/11/18 10:36:15;;;;;;;15.10;5.97;;;;;;;8.51;100.00;100207.16;5009071;28;20396;-87
2022/11/18 10:38:41;;;;;;;16.75;5.78;;;;;;;8.58;100.00;100207.88;5013790;28;20041;-87
2022/11/18 10:41:12;;;;;;;14.93;5.82;;;;;;;8.65;100.00;100218.00;5010215;28;20112;-87
2022/11/18 10:43:46;;;;;;;15.57;6.07;;;;;;;8.75;100.00;100210.00;5006609;28;20049;-87
2022/11/18 10:46:29;;;;;;;16.40;6.03;;;;;;;8.88;100.00;100219.09;5009720;28;20026;-87
2022/11/18 10:49:07;;;;;;;12.55;5.88;;;;;;;8.93;100.00;100220.72;5019235;28;20058;-87
2022/11/18 10:51:32;;;;;;;14.13;5.80;;;;;;;8.95;100.00;100212.88;5008797;28;20056;-86
2022/11/18 10:54:26;;;;;;;13.18;5.40;;;;;;;8.91;100.00;100219.03;5010059;28;20057;-87
2022/11/18 10:57:16;;;;;;;9.93;5.05;;;;;;;8.79;100.00;100225.41;5000751;28;20550;-86
2022/11/18 10:59:53;;;;;;;12.07;5.18;;;;;;;8.78;100.00;100217.69;5015229;28;20084;-87
2022/11/18 11:02:39;;;;;;;14.48;5.32;;;;;;;8.88;100.00;100222.53;5010069;28;20105;-87
2022/11/18 11:05:20;;;;;;;13.18;5.15;;;;;;;8.98;100.00;100218.00;4993066;28;20352;-86
2022/11/18 11:08:17;;;;;;;14.38;5.00;;;;;;;9.07;100.00;100221.19;5005351;28;21210;-87
2022/11/18 11:10:57;;;;;;;11.40;5.00;;;;;;;9.21;100.00;100227.72;5005189;28;20488;-87
2022/11/18 11:13:25;;;;;;;12.98;4.50;;;;;;;9.26;100.00;100234.44;5007366;28;20052;-86
2022/11/18 11:15:54;;;;;;;13.05;4.22;;;;;;;9.27;100.00;100241.31;5009599;28;20030;-87
2022/11/18 11:18:42;;;;;;;10.02;4.50;;;;;;;9.26;100.00;100231.00;5004796;28;20060;-87
2022/11/18 11:21:24;;;;;;;10.85;4.30;;;;;;;9.31;100.00;100232.56;5007431;28;20406;-87
2022/11/18 11:23:50;;;;;;;11.98;4.03;;;;;;;9.34;100.00;100239.41;5008714;28;20110;-86
2022/11/18 11:26:25;;;;;;;8.23;4.00;;;;;;;9.35;100.00;100234.16;5009772;28;20108;-86
2022/11/18 11:29:19;;;;;;;12.32;4.25;;;;;;;9.33;100.00;100241.13;4990926;28;20033;-85
2022/11/18 11:32:08;;;;;;;9.82;3.65;;;;;;;9.18;100.00;100241.56;5009193;28;20018;-86
2022/11/18 11:35:11;;;;;;;12.75;4.43;;;;;;;9.08;100.00;100245.25;5009510;28;20038;-86
2022/11/18 11:37:55;;;;;;;9.35;3.95;;;;;;;8.94;100.00;100252.56;4988293;28;20668;-86
2022/11/18 11:40:44;;;;;;;8.97;3.87;;;;;;;8.90;100.00;100250.94;5006281;28;20503;-86
2022/11/18 11:43:50;;;;;;;6.95;4.40;;;;;;;8.89;100.00;100262.16;5008720;28;20040;-86
2022/11/18 11:46:30;;;;;;;14.68;4.45;;;;;;;8.93;100.00;100253.47;5006346;28;20077;-86
2022/11/18 11:49:26;;;;;;;15.57;5.00;;;;;;;9.01;100.00;100252.34;5005853;28;20030;-86
2022/11/18 11:52:20;;;;;;;11.32;4.90;;;;;;;9.18;100.00;100258.81;5004215;28;20419;-86
2022/11/18 11:55:17;;;;;;;10.85;4.78;;;;;;;9.33;100.00;100255.81;5011832;28;20026;-86